Vores vejrinfo findes også på:

UK Metoffice

European Weather Network

Weather Underground



Stationer ""tæt på"" METAR Rapporter

   
EKEB - Esbjerg, Denmark
Afstand fra denne vejrstation: NNV 29 km
Opdateret: 20-11-2019 12:20
Mest overskyet  
Mest overskyet  
   Vind fra: ØNØ 0.5 m/s
Vind fra: ØNØ 0.5 m/s
Temperatur: 7°C
Dugpunkt: 6°C
Luftfugtighed: 93%
Barometer: 1020 hPa
Skyer: Mest overskyet
Sigtbarhed: More than 10 km
Sky detaljer: Mest overskyet 4600 ft
EKEB 201120Z AUTO 07001KT 9999 BKN046/// 07/06 Q1020
EKSP - Skrydstrup(Dan-A, Denmark
Afstand fra denne vejrstation: Ø 35 km
Opdateret: 20-11-2019 12:20
Mest overskyet  
Mest overskyet  
   Vind fra: NNØ 1.5 m/s
Vind fra: NNØ 1.5 m/s
Temperatur: 7°C
Chill faktor: 6°C
Dugpunkt: 5°C
Luftfugtighed: 87%
Barometer: 1019 hPa
Skyer: Mest overskyet
Sigtbarhed: More than 10 km
Sky detaljer: Mest overskyet 4500 ft
EKSP 201120Z 02003KT 9999 BKN045 07/05 Q1019 NOSIG
EKBI - Billund Airport, Denmark
Afstand fra denne vejrstation: NNØ 56 km
Opdateret: 20-11-2019 12:20
Mest overskyet  
Mest overskyet  
   Vind fra: East 2.1 m/s
Vind fra: East 2.1 m/s
Temperatur: 8°C
Chill faktor: 7°C
Dugpunkt: 3°C
Luftfugtighed: 71%
Barometer: 1020 hPa
Skyer: Mest overskyet
Sigtbarhed: More than 10 km
Sky detaljer: Mest overskyet 4200 ft
EKBI 201120Z AUTO 10004KT 9999 BKN042/// 08/03 Q1020
EKSB - Sonderborg Airpo, Denmark
Afstand fra denne vejrstation: ØSØ 76 km
Opdateret: 20-11-2019 12:20
Tåge, Mest overskyet  
Tåge, Mest overskyet  
   Vind fra: NNV 1.5 m/s
Vind fra: NNV 1.5 m/s
Temperatur: 7°C
Chill faktor: 6°C
Dugpunkt: 7°C
Luftfugtighed: 100%
Barometer: 1019 hPa
Skyer: Mest overskyet
Sigtbarhed: 5 km
Sky detaljer: Mest overskyet 400 ft
EKSB 201120Z 33003KT 4500 BR BKN004 07/07 Q1019
EKVD - Vamdrup (aut/man), Denmark
Afstand fra denne vejrstation: ØNØ 41 km
Opdateret: 20-11-2019 11:50
Mest overskyet  
Mest overskyet  
   Vind fra: ØNØ 2.1 m/s
Vind fra: ØNØ 2.1 m/s
Temperatur: 7°C
Chill faktor: 6°C
Dugpunkt: 6°C
Luftfugtighed: 93%
Barometer: 1020 hPa
Skyer: Mest overskyet
Sigtbarhed: More than 10 km
Sky detaljer: Mest overskyet 4200 ft
EKVD 201050Z 06004KT 9999 BKN042 07/06 Q1020
EDXW - Westerland/Sylt, Germany
Afstand fra denne vejrstation: SSV 47 km
Opdateret: 20-11-2019 12:20
Tåge, Overskyet  
Tåge, Overskyet  
   Vind fra: SØ 1.5 m/s
Vind fra: SØ 1.5 m/s
Skyer: Overskyet
Sigtbarhed: 1 km
Sky detaljer: Mest overskyet 100 ft,
Overskyet 9800 ft
EDXW 201120Z 13003KT 090V160 0600 R14/1000VP2000D FG BKN001 OVC098 05/// Q1019

Original script by  Saratoga-weather.org Adapted for the template by  Weerstation Leuven

Der anvendes følgende:

Vejrstation
Davis VP2

Vejrprogram
Meteohub

Server
RaspberryPI 3 model B

Davis VP2

Meteohub

RaspberryPI 3 model B